aviador You're here:

SBKP Decoded Metar

CAMPINAS in BRAZIL
Report Time2017-11-25 00:00:00
UTC Time2017-11-25 00:16:07
Flight Rules vfr VFR
Wind110° at 10 kt
W.Decomp.*RWY 15: 9.4 kt HW 3.4 kt LCW
W.Rank110° ranks 3
Current wind is above 110° avg. (7.8)
Visibility9999 m
Phenomena:N/A
Clouds:N/A
Expected CloudBase > 5,200 ft AGL from Temp-Dew spread
CeilingNone
Temp24°C (ISA +13)
Dew Point11°C (44% RH)
AAT20.7°C
QNH1017 hPa
Density Alt3,753 ft
Elevation2,169 ft
Report Wrong Elevation
Raw Report
SBKP 250000Z 11010KT CAVOK 24/11 Q1017=

Extra information for SBKP:More info

Metar Taf Metar & Taf Last 4 Metars F.Rules Stats Wind Profile Meteogram Temp Stats Airport Information Weather charts Add Link Nearby VenuesMetar ALERT Operation Metar Decoded Social comments